sensor_id;sensor_type;location;lat;lon;timestamp;pressure;altitude;pressure_sealevel;temperature;humidity
72486;BME280;60509;47.308;-122.428;2022-08-03T00:01:15;100611.40;;;23.93;15.04
72486;BME280;60509;47.308;-122.428;2022-08-03T00:03:37;100608.32;;;27.48;13.91
72486;BME280;60509;47.308;-122.428;2022-08-03T00:06:02;100601.49;;;28.21;13.60
72486;BME280;60509;47.308;-122.428;2022-08-03T00:08:27;100605.92;;;25.05;14.21
72486;BME280;60509;47.308;-122.428;2022-08-03T00:10:52;100600.39;;;28.08;12.90
72486;BME280;60509;47.308;-122.428;2022-08-03T00:13:17;100602.05;;;24.63;15.01
72486;BME280;60509;47.308;-122.428;2022-08-03T00:15:43;100599.19;;;27.28;13.66
72486;BME280;60509;47.308;-122.428;2022-08-03T00:18:08;100597.81;;;27.36;13.23
72486;BME280;60509;47.308;-122.428;2022-08-03T00:20:33;100595.27;;;28.83;12.46
72486;BME280;60509;47.308;-122.428;2022-08-03T00:22:58;100591.19;;;29.11;12.09
72486;BME280;60509;47.308;-122.428;2022-08-03T00:25:23;100588.27;;;26.72;12.58
72486;BME280;60509;47.308;-122.428;2022-08-03T00:27:48;100585.32;;;27.53;12.68
72486;BME280;60509;47.308;-122.428;2022-08-03T00:30:13;100581.26;;;29.49;11.51
72486;BME280;60509;47.308;-122.428;2022-08-03T00:32:38;100579.32;;;29.90;11.18
72486;BME280;60509;47.308;-122.428;2022-08-03T00:35:04;100580.17;;;27.43;12.11
72486;BME280;60509;47.308;-122.428;2022-08-03T00:37:29;100574.03;;;28.08;12.33
72486;BME280;60509;47.308;-122.428;2022-08-03T00:39:54;100569.00;;;29.01;11.76
72486;BME280;60509;47.308;-122.428;2022-08-03T00:42:19;100570.39;;;29.20;12.12
72486;BME280;60509;47.308;-122.428;2022-08-03T00:44:44;100570.22;;;30.29;11.06
72486;BME280;60509;47.308;-122.428;2022-08-03T00:47:10;100567.63;;;30.27;11.02
72486;BME280;60509;47.308;-122.428;2022-08-03T00:49:34;100570.51;;;28.79;11.78
72486;BME280;60509;47.308;-122.428;2022-08-03T00:52:00;100569.39;;;28.92;11.50
72486;BME280;60509;47.308;-122.428;2022-08-03T00:54:25;100568.24;;;30.49;11.04
72486;BME280;60509;47.308;-122.428;2022-08-03T00:56:50;100570.57;;;27.91;11.96
72486;BME280;60509;47.308;-122.428;2022-08-03T00:59:15;100569.10;;;28.88;11.69
72486;BME280;60509;47.308;-122.428;2022-08-03T01:01:40;100565.73;;;30.57;11.04
72486;BME280;60509;47.308;-122.428;2022-08-03T01:04:05;100559.80;;;31.61;10.58
72486;BME280;60509;47.308;-122.428;2022-08-03T01:06:38;100559.48;;;32.56;10.20
72486;BME280;60509;47.308;-122.428;2022-08-03T01:09:02;100557.55;;;32.68;9.88
72486;BME280;60509;47.308;-122.428;2022-08-03T01:11:29;100557.91;;;30.41;10.88
72486;BME280;60509;47.308;-122.428;2022-08-03T01:13:52;100552.30;;;30.33;10.55
72486;BME280;60509;47.308;-122.428;2022-08-03T01:16:17;100546.48;;;31.30;10.19
72486;BME280;60509;47.308;-122.428;2022-08-03T01:18:40;100544.63;;;32.04;9.94
72486;BME280;60509;47.308;-122.428;2022-08-03T01:21:07;100544.28;;;32.71;9.79
72486;BME280;60509;47.308;-122.428;2022-08-03T01:23:58;100540.74;;;33.12;9.56
72486;BME280;60509;47.308;-122.428;2022-08-03T01:26:04;100539.76;;;35.00;8.73
72486;BME280;60509;47.308;-122.428;2022-08-03T01:28:32;100536.63;;;33.67;9.25
72486;BME280;60509;47.308;-122.428;2022-08-03T01:30:43;100535.26;;;33.72;9.15
72486;BME280;60509;47.308;-122.428;2022-08-03T01:33:11;100529.80;;;34.59;8.75
72486;BME280;60509;47.308;-122.428;2022-08-03T01:35:35;100529.14;;;32.10;9.26
72486;BME280;60509;47.308;-122.428;2022-08-03T01:38:00;100527.93;;;35.92;7.94
72486;BME280;60509;47.308;-122.428;2022-08-03T01:40:25;100523.91;;;33.45;8.70
72486;BME280;60509;47.308;-122.428;2022-08-03T01:42:47;100517.77;;;33.75;8.50
72486;BME280;60509;47.308;-122.428;2022-08-03T01:45:13;100519.50;;;35.73;8.03
72486;BME280;60509;47.308;-122.428;2022-08-03T01:47:38;100516.54;;;34.09;8.81
72486;BME280;60509;47.308;-122.428;2022-08-03T01:50:03;100515.70;;;34.48;8.62
72486;BME280;60509;47.308;-122.428;2022-08-03T01:52:28;100517.60;;;35.89;8.37
72486;BME280;60509;47.308;-122.428;2022-08-03T01:54:53;100518.02;;;36.09;7.92
72486;BME280;60509;47.308;-122.428;2022-08-03T01:57:19;100518.73;;;37.26;7.62
72486;BME280;60509;47.308;-122.428;2022-08-03T01:59:43;100520.75;;;34.07;8.86
72486;BME280;60509;47.308;-122.428;2022-08-03T02:02:08;100517.10;;;37.00;8.32
72486;BME280;60509;47.308;-122.428;2022-08-03T02:04:34;100517.33;;;35.44;7.99
72486;BME280;60509;47.308;-122.428;2022-08-03T02:06:58;100512.49;;;33.18;8.65
72486;BME280;60509;47.308;-122.428;2022-08-03T02:09:23;100513.43;;;35.58;8.14
72486;BME280;60509;47.308;-122.428;2022-08-03T02:11:50;100509.09;;;33.83;8.73
72486;BME280;60509;47.308;-122.428;2022-08-03T02:14:14;100507.28;;;34.77;9.00
72486;BME280;60509;47.308;-122.428;2022-08-03T02:16:38;100505.47;;;36.54;8.23
72486;BME280;60509;47.308;-122.428;2022-08-03T02:19:05;100506.46;;;36.78;8.10
72486;BME280;60509;47.308;-122.428;2022-08-03T02:21:34;100505.08;;;34.76;8.54
72486;BME280;60509;47.308;-122.428;2022-08-03T02:23:54;100500.39;;;35.28;8.70
72486;BME280;60509;47.308;-122.428;2022-08-03T02:26:19;100494.61;;;31.91;10.23
72486;BME280;60509;47.308;-122.428;2022-08-03T02:28:47;100494.90;;;35.39;8.26
72486;BME280;60509;47.308;-122.428;2022-08-03T02:31:14;100492.00;;;33.39;8.91
72486;BME280;60509;47.308;-122.428;2022-08-03T02:33:38;100488.13;;;35.64;8.33
72486;BME280;60509;47.308;-122.428;2022-08-03T02:36:00;100485.54;;;36.85;7.79
72486;BME280;60509;47.308;-122.428;2022-08-03T02:38:32;100485.53;;;34.20;8.70
72486;BME280;60509;47.308;-122.428;2022-08-03T02:40:51;100485.32;;;34.63;8.74
72486;BME280;60509;47.308;-122.428;2022-08-03T02:43:19;100482.18;;;33.85;8.79
72486;BME280;60509;47.308;-122.428;2022-08-03T02:45:43;100480.85;;;32.69;9.22
72486;BME280;60509;47.308;-122.428;2022-08-03T02:48:07;100482.26;;;32.40;9.36
72486;BME280;60509;47.308;-122.428;2022-08-03T02:50:33;100480.29;;;35.21;8.93
72486;BME280;60509;47.308;-122.428;2022-08-03T02:52:58;100476.30;;;34.47;9.30
72486;BME280;60509;47.308;-122.428;2022-08-03T02:55:22;100471.74;;;32.35;10.33
72486;BME280;60509;47.308;-122.428;2022-08-03T02:57:47;100468.74;;;33.58;10.05
72486;BME280;60509;47.308;-122.428;2022-08-03T03:00:12;100468.41;;;32.00;10.95
72486;BME280;60509;47.308;-122.428;2022-08-03T03:02:38;100474.09;;;28.71;12.75
72486;BME280;60509;47.308;-122.428;2022-08-03T03:05:03;100473.13;;;26.43;13.74
72486;BME280;60509;47.308;-122.428;2022-08-03T03:07:28;100477.13;;;24.00;15.93
72486;BME280;60509;47.308;-122.428;2022-08-03T03:09:53;100476.99;;;23.06;16.94
72486;BME280;60509;47.308;-122.428;2022-08-03T03:12:18;100476.49;;;23.75;17.16
72486;BME280;60509;47.308;-122.428;2022-08-03T03:14:43;100471.39;;;21.68;18.54
72486;BME280;60509;47.308;-122.428;2022-08-03T03:17:10;100470.82;;;21.85;18.89
72486;BME280;60509;47.308;-122.428;2022-08-03T03:19:34;100474.40;;;22.22;19.15
72486;BME280;60509;47.308;-122.428;2022-08-03T03:22:01;100476.47;;;21.20;19.73
72486;BME280;60509;47.308;-122.428;2022-08-03T03:24:26;100477.18;;;22.20;19.36
72486;BME280;60509;47.308;-122.428;2022-08-03T03:26:50;100475.89;;;22.43;18.72
72486;BME280;60509;47.308;-122.428;2022-08-03T03:29:16;100477.59;;;21.74;19.57
72486;BME280;60509;47.308;-122.428;2022-08-03T03:31:41;100480.22;;;20.04;20.88
72486;BME280;60509;47.308;-122.428;2022-08-03T03:34:07;100489.84;;;19.45;22.17
72486;BME280;60509;47.308;-122.428;2022-08-03T03:36:32;100488.03;;;19.49;23.11
72486;BME280;60509;47.308;-122.428;2022-08-03T03:38:58;100491.82;;;18.25;24.68
72486;BME280;60509;47.308;-122.428;2022-08-03T03:41:23;100495.29;;;18.13;24.64
72486;BME280;60509;47.308;-122.428;2022-08-03T03:43:49;100497.59;;;18.33;24.45
72486;BME280;60509;47.308;-122.428;2022-08-03T03:46:14;100500.90;;;16.90;25.89
72486;BME280;60509;47.308;-122.428;2022-08-03T03:48:40;100501.41;;;16.44;27.07
72486;BME280;60509;47.308;-122.428;2022-08-03T03:51:06;100503.77;;;16.53;27.16
72486;BME280;60509;47.308;-122.428;2022-08-03T03:53:31;100510.18;;;14.29;29.23
72486;BME280;60509;47.308;-122.428;2022-08-03T03:55:57;100513.47;;;14.65;28.98
72486;BME280;60509;47.308;-122.428;2022-08-03T03:58:22;100518.73;;;14.72;29.70
72486;BME280;60509;47.308;-122.428;2022-08-03T04:00:49;100521.57;;;14.52;30.57
72486;BME280;60509;47.308;-122.428;2022-08-03T04:03:14;100521.19;;;14.65;30.40
72486;BME280;60509;47.308;-122.428;2022-08-03T04:05:40;100521.16;;;14.71;30.10
72486;BME280;60509;47.308;-122.428;2022-08-03T04:08:07;100525.62;;;13.84;31.05
72486;BME280;60509;47.308;-122.428;2022-08-03T04:10:33;100529.10;;;14.00;30.86
72486;BME280;60509;47.308;-122.428;2022-08-03T04:12:59;100532.58;;;14.04;30.99
72486;BME280;60509;47.308;-122.428;2022-08-03T04:15:23;100535.57;;;13.89;31.86
72486;BME280;60509;47.308;-122.428;2022-08-03T04:17:48;100536.12;;;13.39;32.61
72486;BME280;60509;47.308;-122.428;2022-08-03T04:20:14;100542.33;;;13.16;32.62
72486;BME280;60509;47.308;-122.428;2022-08-03T04:22:40;100542.38;;;14.01;31.80
72486;BME280;60509;47.308;-122.428;2022-08-03T04:25:09;100546.95;;;12.97;33.32
72486;BME280;60509;47.308;-122.428;2022-08-03T04:27:34;100550.61;;;12.99;33.55
72486;BME280;60509;47.308;-122.428;2022-08-03T04:29:57;100553.24;;;12.00;34.61
72486;BME280;60509;47.308;-122.428;2022-08-03T04:32:24;100548.92;;;12.30;34.78
72486;BME280;60509;47.308;-122.428;2022-08-03T04:34:49;100548.22;;;12.89;34.69
72486;BME280;60509;47.308;-122.428;2022-08-03T04:37:21;100547.71;;;12.94;34.52
72486;BME280;60509;47.308;-122.428;2022-08-03T04:39:41;100548.98;;;11.82;34.96
72486;BME280;60509;47.308;-122.428;2022-08-03T04:42:08;100550.55;;;11.83;35.08
72486;BME280;60509;47.308;-122.428;2022-08-03T04:44:36;100549.58;;;12.07;34.71
72486;BME280;60509;47.308;-122.428;2022-08-03T04:46:59;100549.76;;;13.25;33.87
72486;BME280;60509;47.308;-122.428;2022-08-03T04:49:24;100548.51;;;12.28;34.32
72486;BME280;60509;47.308;-122.428;2022-08-03T04:51:49;100550.17;;;12.64;34.68
72486;BME280;60509;47.308;-122.428;2022-08-03T04:54:15;100552.65;;;11.84;35.84
72486;BME280;60509;47.308;-122.428;2022-08-03T04:56:42;100558.55;;;11.53;36.11
72486;BME280;60509;47.308;-122.428;2022-08-03T04:59:07;100556.77;;;11.78;36.15
72486;BME280;60509;47.308;-122.428;2022-08-03T05:01:33;100559.52;;;11.15;37.10
72486;BME280;60509;47.308;-122.428;2022-08-03T05:03:59;100559.99;;;10.31;38.32
72486;BME280;60509;47.308;-122.428;2022-08-03T05:06:24;100562.72;;;10.59;39.08
72486;BME280;60509;47.308;-122.428;2022-08-03T05:08:50;100558.77;;;11.50;37.29
72486;BME280;60509;47.308;-122.428;2022-08-03T05:11:17;100557.90;;;11.69;37.25
72486;BME280;60509;47.308;-122.428;2022-08-03T05:13:42;100562.57;;;9.73;39.32
72486;BME280;60509;47.308;-122.428;2022-08-03T05:16:08;100563.80;;;9.68;39.36
72486;BME280;60509;47.308;-122.428;2022-08-03T05:18:34;100567.16;;;10.63;39.71
72486;BME280;60509;47.308;-122.428;2022-08-03T05:21:00;100570.05;;;10.72;39.43
72486;BME280;60509;47.308;-122.428;2022-08-03T05:23:25;100571.10;;;10.22;40.14
72486;BME280;60509;47.308;-122.428;2022-08-03T05:25:51;100571.84;;;9.69;40.66
72486;BME280;60509;47.308;-122.428;2022-08-03T05:28:17;100570.67;;;8.66;43.00
72486;BME280;60509;47.308;-122.428;2022-08-03T05:30:43;100572.96;;;8.93;42.11
72486;BME280;60509;47.308;-122.428;2022-08-03T05:33:09;100570.80;;;9.99;41.56
72486;BME280;60509;47.308;-122.428;2022-08-03T05:35:36;100571.15;;;8.22;43.09
72486;BME280;60509;47.308;-122.428;2022-08-03T05:38:01;100577.18;;;7.41;44.80
72486;BME280;60509;47.308;-122.428;2022-08-03T05:40:27;100575.39;;;8.35;44.99
72486;BME280;60509;47.308;-122.428;2022-08-03T05:42:53;100573.65;;;9.44;43.60
72486;BME280;60509;47.308;-122.428;2022-08-03T05:45:19;100572.07;;;8.46;44.20
72486;BME280;60509;47.308;-122.428;2022-08-03T05:47:45;100576.34;;;8.94;43.63
72486;BME280;60509;47.308;-122.428;2022-08-03T05:50:11;100578.13;;;8.49;44.77
72486;BME280;60509;47.308;-122.428;2022-08-03T05:52:37;100580.93;;;8.81;43.94
72486;BME280;60509;47.308;-122.428;2022-08-03T05:55:04;100583.93;;;8.53;43.97
72486;BME280;60509;47.308;-122.428;2022-08-03T05:57:28;100586.62;;;8.38;44.26
72486;BME280;60509;47.308;-122.428;2022-08-03T05:59:54;100587.56;;;9.43;42.60
72486;BME280;60509;47.308;-122.428;2022-08-03T06:02:20;100589.47;;;9.01;43.41
72486;BME280;60509;47.308;-122.428;2022-08-03T06:04:46;100593.73;;;9.34;42.94
72486;BME280;60509;47.308;-122.428;2022-08-03T06:07:12;100594.55;;;9.64;42.48
72486;BME280;60509;47.308;-122.428;2022-08-03T06:09:38;100593.67;;;9.50;42.22
72486;BME280;60509;47.308;-122.428;2022-08-03T06:12:04;100590.73;;;8.40;43.98
72486;BME280;60509;47.308;-122.428;2022-08-03T06:14:29;100591.12;;;8.41;44.11
72486;BME280;60509;47.308;-122.428;2022-08-03T06:16:55;100592.32;;;7.80;44.85
72486;BME280;60509;47.308;-122.428;2022-08-03T06:19:21;100588.78;;;7.58;45.23
72486;BME280;60509;47.308;-122.428;2022-08-03T06:21:47;100585.43;;;8.00;44.79
72486;BME280;60509;47.308;-122.428;2022-08-03T06:24:13;100585.36;;;7.25;45.78
72486;BME280;60509;47.308;-122.428;2022-08-03T06:26:39;100583.52;;;7.63;45.09
72486;BME280;60509;47.308;-122.428;2022-08-03T06:29:05;100583.67;;;8.78;43.89
72486;BME280;60509;47.308;-122.428;2022-08-03T06:31:30;100582.35;;;9.20;43.44
72486;BME280;60509;47.308;-122.428;2022-08-03T06:33:56;100582.76;;;9.64;43.20
72486;BME280;60509;47.308;-122.428;2022-08-03T06:36:22;100586.30;;;9.09;43.17
72486;BME280;60509;47.308;-122.428;2022-08-03T06:38:48;100585.71;;;8.49;44.48
72486;BME280;60509;47.308;-122.428;2022-08-03T06:41:14;100583.25;;;8.46;43.81
72486;BME280;60509;47.308;-122.428;2022-08-03T06:43:40;100583.16;;;8.41;43.20
72486;BME280;60509;47.308;-122.428;2022-08-03T06:46:06;100584.58;;;7.22;44.47
72486;BME280;60509;47.308;-122.428;2022-08-03T06:48:32;100584.85;;;8.72;44.02
72486;BME280;60509;47.308;-122.428;2022-08-03T06:50:58;100583.67;;;8.24;44.37
72486;BME280;60509;47.308;-122.428;2022-08-03T06:53:24;100587.50;;;6.38;47.84
72486;BME280;60509;47.308;-122.428;2022-08-03T06:55:50;100590.23;;;6.80;48.38
72486;BME280;60509;47.308;-122.428;2022-08-03T06:58:16;100584.97;;;6.98;48.32
72486;BME280;60509;47.308;-122.428;2022-08-03T07:00:42;100582.89;;;6.84;47.73
72486;BME280;60509;47.308;-122.428;2022-08-03T07:03:08;100585.93;;;6.59;48.62
72486;BME280;60509;47.308;-122.428;2022-08-03T07:05:34;100585.02;;;6.85;48.38
72486;BME280;60509;47.308;-122.428;2022-08-03T07:08:00;100584.70;;;8.09;46.22
72486;BME280;60509;47.308;-122.428;2022-08-03T07:10:26;100587.44;;;8.14;45.09
72486;BME280;60509;47.308;-122.428;2022-08-03T07:12:51;100587.14;;;7.96;45.61
72486;BME280;60509;47.308;-122.428;2022-08-03T07:15:17;100586.54;;;8.06;45.59
72486;BME280;60509;47.308;-122.428;2022-08-03T07:17:43;100588.27;;;7.65;47.07
72486;BME280;60509;47.308;-122.428;2022-08-03T07:20:10;100594.01;;;7.49;47.80
72486;BME280;60509;47.308;-122.428;2022-08-03T07:22:35;100597.82;;;7.48;48.28
72486;BME280;60509;47.308;-122.428;2022-08-03T07:25:02;100596.52;;;6.99;49.53
72486;BME280;60509;47.308;-122.428;2022-08-03T07:27:28;100593.03;;;6.88;48.96
72486;BME280;60509;47.308;-122.428;2022-08-03T07:29:54;100592.70;;;7.32;48.66
72486;BME280;60509;47.308;-122.428;2022-08-03T07:32:19;100591.18;;;7.37;48.94
72486;BME280;60509;47.308;-122.428;2022-08-03T07:34:45;100589.64;;;7.15;49.35
72486;BME280;60509;47.308;-122.428;2022-08-03T07:37:11;100592.36;;;7.10;48.64
72486;BME280;60509;47.308;-122.428;2022-08-03T07:39:38;100587.95;;;7.76;47.71
72486;BME280;60509;47.308;-122.428;2022-08-03T07:42:04;100587.32;;;7.58;47.03
72486;BME280;60509;47.308;-122.428;2022-08-03T07:44:30;100593.50;;;6.52;49.96
72486;BME280;60509;47.308;-122.428;2022-08-03T07:46:56;100593.99;;;6.21;50.82
72486;BME280;60509;47.308;-122.428;2022-08-03T07:49:22;100593.90;;;5.54;51.88
72486;BME280;60509;47.308;-122.428;2022-08-03T07:51:48;100591.65;;;6.29;50.52
72486;BME280;60509;47.308;-122.428;2022-08-03T07:54:14;100595.09;;;5.95;50.41
72486;BME280;60509;47.308;-122.428;2022-08-03T07:56:40;100599.33;;;6.65;49.99
72486;BME280;60509;47.308;-122.428;2022-08-03T07:59:06;100600.07;;;5.10;51.04
72486;BME280;60509;47.308;-122.428;2022-08-03T08:01:32;100593.70;;;7.36;48.62
72486;BME280;60509;47.308;-122.428;2022-08-03T08:03:58;100595.02;;;6.27;50.49
72486;BME280;60509;47.308;-122.428;2022-08-03T08:06:24;100596.09;;;6.24;49.94
72486;BME280;60509;47.308;-122.428;2022-08-03T08:08:50;100596.97;;;6.37;49.60
72486;BME280;60509;47.308;-122.428;2022-08-03T08:11:16;100596.30;;;6.55;49.27
72486;BME280;60509;47.308;-122.428;2022-08-03T08:13:42;100592.51;;;5.05;50.90
72486;BME280;60509;47.308;-122.428;2022-08-03T08:16:08;100592.56;;;6.55;49.42
72486;BME280;60509;47.308;-122.428;2022-08-03T08:18:34;100592.37;;;6.68;49.08
72486;BME280;60509;47.308;-122.428;2022-08-03T08:21:00;100588.87;;;6.75;48.13
72486;BME280;60509;47.308;-122.428;2022-08-03T08:23:26;100590.32;;;6.14;48.70
72486;BME280;60509;47.308;-122.428;2022-08-03T08:25:52;100588.13;;;6.41;48.06
72486;BME280;60509;47.308;-122.428;2022-08-03T08:28:18;100584.77;;;6.96;46.69
72486;BME280;60509;47.308;-122.428;2022-08-03T08:30:44;100586.41;;;7.12;46.48
72486;BME280;60509;47.308;-122.428;2022-08-03T08:33:09;100585.32;;;6.42;48.47
72486;BME280;60509;47.308;-122.428;2022-08-03T08:35:34;100580.15;;;7.11;47.38
72486;BME280;60509;47.308;-122.428;2022-08-03T08:38:00;100583.78;;;5.37;49.17
72486;BME280;60509;47.308;-122.428;2022-08-03T08:40:25;100582.28;;;5.76;49.37
72486;BME280;60509;47.308;-122.428;2022-08-03T08:42:51;100581.78;;;6.39;49.11
72486;BME280;60509;47.308;-122.428;2022-08-03T08:45:17;100582.68;;;6.44;49.09
72486;BME280;60509;47.308;-122.428;2022-08-03T08:47:45;100577.53;;;6.34;48.17
72486;BME280;60509;47.308;-122.428;2022-08-03T08:50:08;100578.80;;;5.83;48.85
72486;BME280;60509;47.308;-122.428;2022-08-03T08:52:34;100575.39;;;5.07;49.56
72486;BME280;60509;47.308;-122.428;2022-08-03T08:55:00;100571.61;;;4.86;50.02
72486;BME280;60509;47.308;-122.428;2022-08-03T08:57:27;100567.91;;;6.36;48.31
72486;BME280;60509;47.308;-122.428;2022-08-03T08:59:51;100565.24;;;6.28;48.17
72486;BME280;60509;47.308;-122.428;2022-08-03T09:02:17;100562.71;;;6.23;48.11
72486;BME280;60509;47.308;-122.428;2022-08-03T09:04:43;100561.23;;;5.52;48.80
72486;BME280;60509;47.308;-122.428;2022-08-03T09:07:09;100558.39;;;6.35;47.83
72486;BME280;60509;47.308;-122.428;2022-08-03T09:09:35;100559.32;;;5.91;49.78
72486;BME280;60509;47.308;-122.428;2022-08-03T09:12:00;100558.32;;;6.05;49.51
72486;BME280;60509;47.308;-122.428;2022-08-03T09:14:25;100560.15;;;6.52;48.52
72486;BME280;60509;47.308;-122.428;2022-08-03T09:16:59;100558.59;;;6.19;48.29
72486;BME280;60509;47.308;-122.428;2022-08-03T09:19:15;100559.50;;;6.43;48.16
72486;BME280;60509;47.308;-122.428;2022-08-03T09:21:42;100560.10;;;5.55;49.29
72486;BME280;60509;47.308;-122.428;2022-08-03T09:24:06;100561.91;;;6.56;48.73
72486;BME280;60509;47.308;-122.428;2022-08-03T09:26:33;100564.52;;;6.08;49.44
72486;BME280;60509;47.308;-122.428;2022-08-03T09:28:58;100559.21;;;5.77;49.37
72486;BME280;60509;47.308;-122.428;2022-08-03T09:31:30;100558.75;;;6.12;49.91
72486;BME280;60509;47.308;-122.428;2022-08-03T09:33:47;100559.57;;;5.94;50.66
72486;BME280;60509;47.308;-122.428;2022-08-03T09:36:33;100556.34;;;5.94;50.74
72486;BME280;60509;47.308;-122.428;2022-08-03T09:38:36;100555.40;;;6.07;50.53
72486;BME280;60509;47.308;-122.428;2022-08-03T09:41:01;100552.43;;;5.35;52.03
72486;BME280;60509;47.308;-122.428;2022-08-03T09:43:27;100555.80;;;4.42;53.76
72486;BME280;60509;47.308;-122.428;2022-08-03T09:46:02;100554.28;;;4.50;53.35
72486;BME280;60509;47.308;-122.428;2022-08-03T09:48:25;100557.05;;;5.09;52.89
72486;BME280;60509;47.308;-122.428;2022-08-03T09:50:48;100555.03;;;5.01;53.11
72486;BME280;60509;47.308;-122.428;2022-08-03T09:53:07;100554.56;;;4.87;53.90
72486;BME280;60509;47.308;-122.428;2022-08-03T09:55:31;100556.46;;;5.14;52.79
72486;BME280;60509;47.308;-122.428;2022-08-03T09:58:04;100554.58;;;4.72;53.74
72486;BME280;60509;47.308;-122.428;2022-08-03T10:00:22;100559.25;;;4.85;54.26
72486;BME280;60509;47.308;-122.428;2022-08-03T10:02:46;100559.28;;;5.65;53.19
72486;BME280;60509;47.308;-122.428;2022-08-03T10:05:12;100556.27;;;4.70;54.04
72486;BME280;60509;47.308;-122.428;2022-08-03T10:07:44;100559.00;;;5.46;52.45
72486;BME280;60509;47.308;-122.428;2022-08-03T10:10:02;100562.75;;;4.96;53.17
72486;BME280;60509;47.308;-122.428;2022-08-03T10:12:27;100564.47;;;5.49;53.30
72486;BME280;60509;47.308;-122.428;2022-08-03T10:14:53;100557.66;;;4.75;54.02
72486;BME280;60509;47.308;-122.428;2022-08-03T10:17:17;100555.11;;;5.27;54.30
72486;BME280;60509;47.308;-122.428;2022-08-03T10:19:42;100552.06;;;5.11;54.54
72486;BME280;60509;47.308;-122.428;2022-08-03T10:22:11;100549.12;;;4.15;57.23
72486;BME280;60509;47.308;-122.428;2022-08-03T10:24:34;100549.80;;;4.76;56.50
72486;BME280;60509;47.308;-122.428;2022-08-03T10:27:00;100549.97;;;3.92;56.56
72486;BME280;60509;47.308;-122.428;2022-08-03T10:29:23;100550.86;;;4.58;55.68
72486;BME280;60509;47.308;-122.428;2022-08-03T10:31:48;100552.44;;;4.67;55.65
72486;BME280;60509;47.308;-122.428;2022-08-03T10:34:17;100550.64;;;4.93;54.16
72486;BME280;60509;47.308;-122.428;2022-08-03T10:36:38;100550.17;;;4.91;54.16
72486;BME280;60509;47.308;-122.428;2022-08-03T10:39:02;100552.56;;;5.18;54.20
72486;BME280;60509;47.308;-122.428;2022-08-03T10:41:39;100549.94;;;4.26;56.06
72486;BME280;60509;47.308;-122.428;2022-08-03T10:43:57;100547.69;;;3.23;57.52
72486;BME280;60509;47.308;-122.428;2022-08-03T10:46:18;100546.48;;;4.83;55.63
72486;BME280;60509;47.308;-122.428;2022-08-03T10:48:42;100548.53;;;4.50;56.42
72486;BME280;60509;47.308;-122.428;2022-08-03T10:51:07;100547.10;;;4.73;57.50
72486;BME280;60509;47.308;-122.428;2022-08-03T10:53:34;100545.33;;;4.27;58.38
72486;BME280;60509;47.308;-122.428;2022-08-03T10:55:57;100540.62;;;3.64;57.83
72486;BME280;60509;47.308;-122.428;2022-08-03T10:58:54;100539.36;;;4.53;56.21
72486;BME280;60509;47.308;-122.428;2022-08-03T11:00:49;100540.32;;;3.80;58.52
72486;BME280;60509;47.308;-122.428;2022-08-03T11:03:13;100539.83;;;3.95;58.79
72486;BME280;60509;47.308;-122.428;2022-08-03T11:05:40;100544.80;;;3.47;60.88
72486;BME280;60509;47.308;-122.428;2022-08-03T11:08:35;100548.61;;;2.13;61.93
72486;BME280;60509;47.308;-122.428;2022-08-03T11:10:30;100554.71;;;3.24;60.86
72486;BME280;60509;47.308;-122.428;2022-08-03T11:13:05;100556.49;;;2.83;62.59
72486;BME280;60509;47.308;-122.428;2022-08-03T11:15:31;100550.02;;;3.47;60.59
72486;BME280;60509;47.308;-122.428;2022-08-03T11:18:07;100553.00;;;3.32;63.48
72486;BME280;60509;47.308;-122.428;2022-08-03T11:20:09;100554.30;;;2.44;64.68
72486;BME280;60509;47.308;-122.428;2022-08-03T11:22:48;100552.53;;;3.61;61.40
72486;BME280;60509;47.308;-122.428;2022-08-03T11:25:00;100549.57;;;3.09;63.61
72486;BME280;60509;47.308;-122.428;2022-08-03T11:27:24;100547.74;;;3.11;63.03
72486;BME280;60509;47.308;-122.428;2022-08-03T11:29:58;100552.54;;;2.85;63.31
72486;BME280;60509;47.308;-122.428;2022-08-03T11:32:52;100557.69;;;2.44;62.12
72486;BME280;60509;47.308;-122.428;2022-08-03T11:35:06;100559.19;;;3.60;59.67
72486;BME280;60509;47.308;-122.428;2022-08-03T11:37:22;100567.69;;;2.96;63.07
72486;BME280;60509;47.308;-122.428;2022-08-03T11:39:38;100573.46;;;1.21;67.08
72486;BME280;60509;47.308;-122.428;2022-08-03T11:41:54;100576.65;;;2.60;64.37
72486;BME280;60509;47.308;-122.428;2022-08-03T11:44:39;100575.97;;;2.70;63.07
72486;BME280;60509;47.308;-122.428;2022-08-03T11:46:45;100567.35;;;3.26;59.48
72486;BME280;60509;47.308;-122.428;2022-08-03T11:49:11;100572.24;;;2.83;62.04
72486;BME280;60509;47.308;-122.428;2022-08-03T11:51:35;100567.66;;;3.18;60.83
72486;BME280;60509;47.308;-122.428;2022-08-03T11:54:04;100568.26;;;2.98;59.85
72486;BME280;60509;47.308;-122.428;2022-08-03T11:56:26;100571.45;;;3.33;59.27
72486;BME280;60509;47.308;-122.428;2022-08-03T11:58:52;100573.35;;;2.99;61.19
72486;BME280;60509;47.308;-122.428;2022-08-03T12:01:17;100576.73;;;3.03;63.19
72486;BME280;60509;47.308;-122.428;2022-08-03T12:03:41;100566.77;;;3.03;61.38
72486;BME280;60509;47.308;-122.428;2022-08-03T12:06:09;100567.14;;;3.06;59.96
72486;BME280;60509;47.308;-122.428;2022-08-03T12:08:32;100560.96;;;3.38;59.09
72486;BME280;60509;47.308;-122.428;2022-08-03T12:10:58;100563.89;;;3.33;59.39
72486;BME280;60509;47.308;-122.428;2022-08-03T12:13:22;100565.58;;;2.72;59.49
72486;BME280;60509;47.308;-122.428;2022-08-03T12:15:51;100568.56;;;2.20;61.55
72486;BME280;60509;47.308;-122.428;2022-08-03T12:18:15;100567.03;;;2.42;61.70